sensor_id;sensor_type;location;lat;lon;timestamp;P1;durP1;ratioP1;P2;durP2;ratioP2
47784;SDS011;35233;55.686;37.848;2023-07-31T00:01:42;5.15;;;2.70;;
47784;SDS011;35233;55.686;37.848;2023-07-31T00:04:08;3.53;;;2.65;;
47784;SDS011;35233;55.686;37.848;2023-07-31T00:06:33;3.65;;;2.70;;
47784;SDS011;35233;55.686;37.848;2023-07-31T00:08:59;3.67;;;2.65;;
47784;SDS011;35233;55.686;37.848;2023-07-31T00:11:25;3.85;;;2.90;;
47784;SDS011;35233;55.686;37.848;2023-07-31T00:13:50;3.58;;;2.60;;
47784;SDS011;35233;55.686;37.848;2023-07-31T00:16:16;3.45;;;2.53;;
47784;SDS011;35233;55.686;37.848;2023-07-31T00:18:41;4.03;;;3.13;;
47784;SDS011;35233;55.686;37.848;2023-07-31T00:21:08;3.67;;;2.67;;
47784;SDS011;35233;55.686;37.848;2023-07-31T00:23:33;3.50;;;2.60;;
47784;SDS011;35233;55.686;37.848;2023-07-31T00:25:59;4.63;;;3.08;;
47784;SDS011;35233;55.686;37.848;2023-07-31T00:28:24;4.22;;;2.95;;
47784;SDS011;35233;55.686;37.848;2023-07-31T00:30:50;5.22;;;2.67;;
47784;SDS011;35233;55.686;37.848;2023-07-31T00:33:15;3.22;;;2.70;;
47784;SDS011;35233;55.686;37.848;2023-07-31T00:35:41;3.95;;;2.72;;
47784;SDS011;35233;55.686;37.848;2023-07-31T00:38:06;5.07;;;2.92;;
47784;SDS011;35233;55.686;37.848;2023-07-31T00:40:35;3.30;;;2.50;;
47784;SDS011;35233;55.686;37.848;2023-07-31T00:43:02;3.28;;;2.50;;
47784;SDS011;35233;55.686;37.848;2023-07-31T00:45:28;3.10;;;2.50;;
47784;SDS011;35233;55.686;37.848;2023-07-31T00:47:54;4.45;;;2.80;;
47784;SDS011;35233;55.686;37.848;2023-07-31T00:50:19;4.75;;;2.60;;
47784;SDS011;35233;55.686;37.848;2023-07-31T00:52:45;3.72;;;2.60;;
47784;SDS011;35233;55.686;37.848;2023-07-31T00:55:10;2.90;;;2.60;;
47784;SDS011;35233;55.686;37.848;2023-07-31T00:57:36;3.83;;;2.83;;
47784;SDS011;35233;55.686;37.848;2023-07-31T01:00:03;3.83;;;2.63;;
47784;SDS011;35233;55.686;37.848;2023-07-31T01:02:29;3.65;;;2.83;;
47784;SDS011;35233;55.686;37.848;2023-07-31T01:04:55;5.78;;;2.90;;
47784;SDS011;35233;55.686;37.848;2023-07-31T01:07:26;4.95;;;2.90;;
47784;SDS011;35233;55.686;37.848;2023-07-31T01:10:03;4.28;;;2.80;;
47784;SDS011;35233;55.686;37.848;2023-07-31T01:12:35;3.85;;;2.90;;
47784;SDS011;35233;55.686;37.848;2023-07-31T01:15:04;3.28;;;2.72;;
47784;SDS011;35233;55.686;37.848;2023-07-31T01:17:30;4.82;;;3.00;;
47784;SDS011;35233;55.686;37.848;2023-07-31T01:19:57;3.75;;;2.75;;
47784;SDS011;35233;55.686;37.848;2023-07-31T01:22:30;5.85;;;2.97;;
47784;SDS011;35233;55.686;37.848;2023-07-31T01:28:07;5.22;;;2.90;;
47784;SDS011;35233;55.686;37.848;2023-07-31T01:30:40;4.57;;;3.03;;
47784;SDS011;35233;55.686;37.848;2023-07-31T01:33:09;3.50;;;2.70;;
47784;SDS011;35233;55.686;37.848;2023-07-31T01:35:36;4.60;;;3.00;;
47784;SDS011;35233;55.686;37.848;2023-07-31T01:38:02;4.50;;;2.90;;
47784;SDS011;35233;55.686;37.848;2023-07-31T01:40:29;4.55;;;2.92;;
47784;SDS011;35233;55.686;37.848;2023-07-31T01:42:55;4.15;;;2.90;;
47784;SDS011;35233;55.686;37.848;2023-07-31T01:45:20;4.07;;;2.80;;
47784;SDS011;35233;55.686;37.848;2023-07-31T01:47:46;4.60;;;3.00;;
47784;SDS011;35233;55.686;37.848;2023-07-31T01:50:11;3.60;;;2.63;;
47784;SDS011;35233;55.686;37.848;2023-07-31T01:52:37;3.97;;;2.97;;
47784;SDS011;35233;55.686;37.848;2023-07-31T01:55:03;4.25;;;2.63;;
47784;SDS011;35233;55.686;37.848;2023-07-31T01:57:29;3.97;;;2.97;;
47784;SDS011;35233;55.686;37.848;2023-07-31T01:59:54;4.72;;;3.05;;
47784;SDS011;35233;55.686;37.848;2023-07-31T02:02:19;4.32;;;3.03;;
47784;SDS011;35233;55.686;37.848;2023-07-31T02:04:45;4.30;;;2.92;;
47784;SDS011;35233;55.686;37.848;2023-07-31T02:07:11;3.65;;;2.75;;
47784;SDS011;35233;55.686;37.848;2023-07-31T02:09:37;4.80;;;2.92;;
47784;SDS011;35233;55.686;37.848;2023-07-31T02:12:02;4.40;;;2.95;;
47784;SDS011;35233;55.686;37.848;2023-07-31T02:14:28;3.83;;;2.78;;
47784;SDS011;35233;55.686;37.848;2023-07-31T02:16:53;4.38;;;2.80;;
47784;SDS011;35233;55.686;37.848;2023-07-31T02:19:19;4.88;;;2.70;;
47784;SDS011;35233;55.686;37.848;2023-07-31T02:21:45;3.90;;;2.83;;
47784;SDS011;35233;55.686;37.848;2023-07-31T02:24:10;3.28;;;2.40;;
47784;SDS011;35233;55.686;37.848;2023-07-31T02:26:36;3.22;;;2.50;;
47784;SDS011;35233;55.686;37.848;2023-07-31T02:29:01;3.90;;;2.75;;
47784;SDS011;35233;55.686;37.848;2023-07-31T02:31:27;3.28;;;2.60;;
47784;SDS011;35233;55.686;37.848;2023-07-31T02:33:52;3.97;;;2.70;;
47784;SDS011;35233;55.686;37.848;2023-07-31T02:36:17;4.85;;;2.75;;
47784;SDS011;35233;55.686;37.848;2023-07-31T02:38:44;5.40;;;3.00;;
47784;SDS011;35233;55.686;37.848;2023-07-31T02:41:09;3.90;;;2.88;;
47784;SDS011;35233;55.686;37.848;2023-07-31T02:43:34;5.88;;;3.00;;
47784;SDS011;35233;55.686;37.848;2023-07-31T02:46:00;4.25;;;2.80;;
47784;SDS011;35233;55.686;37.848;2023-07-31T02:48:25;3.70;;;2.78;;
47784;SDS011;35233;55.686;37.848;2023-07-31T02:50:51;4.30;;;2.92;;
47784;SDS011;35233;55.686;37.848;2023-07-31T02:53:16;3.60;;;2.80;;
47784;SDS011;35233;55.686;37.848;2023-07-31T02:55:42;3.25;;;2.50;;
47784;SDS011;35233;55.686;37.848;2023-07-31T02:58:07;4.32;;;2.83;;
47784;SDS011;35233;55.686;37.848;2023-07-31T03:00:33;5.05;;;2.72;;
47784;SDS011;35233;55.686;37.848;2023-07-31T03:02:58;5.45;;;2.88;;
47784;SDS011;35233;55.686;37.848;2023-07-31T03:05:23;4.82;;;2.80;;
47784;SDS011;35233;55.686;37.848;2023-07-31T03:07:49;3.55;;;2.80;;
47784;SDS011;35233;55.686;37.848;2023-07-31T03:10:15;3.45;;;2.70;;
47784;SDS011;35233;55.686;37.848;2023-07-31T03:12:40;3.80;;;2.60;;
47784;SDS011;35233;55.686;37.848;2023-07-31T03:15:06;3.72;;;2.80;;
47784;SDS011;35233;55.686;37.848;2023-07-31T03:17:32;3.35;;;2.42;;
47784;SDS011;35233;55.686;37.848;2023-07-31T03:19:57;3.70;;;2.90;;
47784;SDS011;35233;55.686;37.848;2023-07-31T03:22:23;3.60;;;2.40;;
47784;SDS011;35233;55.686;37.848;2023-07-31T03:24:48;3.45;;;2.80;;
47784;SDS011;35233;55.686;37.848;2023-07-31T03:27:14;3.78;;;2.72;;
47784;SDS011;35233;55.686;37.848;2023-07-31T03:29:39;3.47;;;2.50;;
47784;SDS011;35233;55.686;37.848;2023-07-31T03:32:05;3.58;;;2.63;;
47784;SDS011;35233;55.686;37.848;2023-07-31T03:34:30;3.22;;;2.55;;
47784;SDS011;35233;55.686;37.848;2023-07-31T03:36:57;5.15;;;2.88;;
47784;SDS011;35233;55.686;37.848;2023-07-31T03:39:23;2.95;;;2.40;;
47784;SDS011;35233;55.686;37.848;2023-07-31T03:41:48;3.08;;;2.33;;
47784;SDS011;35233;55.686;37.848;2023-07-31T03:44:14;3.38;;;2.60;;
47784;SDS011;35233;55.686;37.848;2023-07-31T03:46:39;3.08;;;2.35;;
47784;SDS011;35233;55.686;37.848;2023-07-31T03:49:05;3.70;;;2.60;;
47784;SDS011;35233;55.686;37.848;2023-07-31T03:51:30;4.45;;;2.97;;
47784;SDS011;35233;55.686;37.848;2023-07-31T03:53:56;3.42;;;2.60;;
47784;SDS011;35233;55.686;37.848;2023-07-31T03:56:21;3.53;;;2.45;;
47784;SDS011;35233;55.686;37.848;2023-07-31T03:58:47;3.90;;;2.60;;
47784;SDS011;35233;55.686;37.848;2023-07-31T04:01:13;3.08;;;2.40;;
47784;SDS011;35233;55.686;37.848;2023-07-31T04:03:38;3.35;;;2.50;;
47784;SDS011;35233;55.686;37.848;2023-07-31T04:06:04;3.53;;;2.47;;
47784;SDS011;35233;55.686;37.848;2023-07-31T04:08:29;3.83;;;2.70;;
47784;SDS011;35233;55.686;37.848;2023-07-31T04:10:55;4.47;;;3.00;;
47784;SDS011;35233;55.686;37.848;2023-07-31T04:13:21;3.50;;;2.80;;
47784;SDS011;35233;55.686;37.848;2023-07-31T04:15:48;3.08;;;2.47;;
47784;SDS011;35233;55.686;37.848;2023-07-31T04:18:15;3.78;;;2.60;;
47784;SDS011;35233;55.686;37.848;2023-07-31T04:20:40;3.53;;;2.60;;
47784;SDS011;35233;55.686;37.848;2023-07-31T04:23:06;4.50;;;2.70;;
47784;SDS011;35233;55.686;37.848;2023-07-31T04:25:31;3.25;;;2.40;;
47784;SDS011;35233;55.686;37.848;2023-07-31T04:27:57;3.80;;;2.65;;
47784;SDS011;35233;55.686;37.848;2023-07-31T04:30:22;4.85;;;2.78;;
47784;SDS011;35233;55.686;37.848;2023-07-31T04:32:48;4.07;;;2.50;;
47784;SDS011;35233;55.686;37.848;2023-07-31T04:35:13;3.90;;;2.55;;
47784;SDS011;35233;55.686;37.848;2023-07-31T04:37:39;4.30;;;2.70;;
47784;SDS011;35233;55.686;37.848;2023-07-31T04:40:04;5.00;;;2.58;;
47784;SDS011;35233;55.686;37.848;2023-07-31T04:42:30;5.28;;;2.75;;
47784;SDS011;35233;55.686;37.848;2023-07-31T04:44:56;2.95;;;2.30;;
47784;SDS011;35233;55.686;37.848;2023-07-31T04:47:21;3.47;;;2.55;;
47784;SDS011;35233;55.686;37.848;2023-07-31T04:49:47;3.83;;;2.33;;
47784;SDS011;35233;55.686;37.848;2023-07-31T04:52:12;2.92;;;2.38;;
47784;SDS011;35233;55.686;37.848;2023-07-31T04:54:38;3.92;;;2.75;;
47784;SDS011;35233;55.686;37.848;2023-07-31T04:57:03;3.92;;;2.63;;
47784;SDS011;35233;55.686;37.848;2023-07-31T04:59:29;2.80;;;2.33;;
47784;SDS011;35233;55.686;37.848;2023-07-31T05:01:56;4.25;;;2.50;;
47784;SDS011;35233;55.686;37.848;2023-07-31T05:04:22;3.05;;;2.40;;
47784;SDS011;35233;55.686;37.848;2023-07-31T05:06:47;2.97;;;2.50;;
47784;SDS011;35233;55.686;37.848;2023-07-31T05:09:13;2.35;;;2.08;;
47784;SDS011;35233;55.686;37.848;2023-07-31T05:11:38;3.58;;;2.50;;
47784;SDS011;35233;55.686;37.848;2023-07-31T05:14:05;2.40;;;2.20;;
47784;SDS011;35233;55.686;37.848;2023-07-31T05:16:31;2.88;;;2.47;;
47784;SDS011;35233;55.686;37.848;2023-07-31T05:18:56;2.80;;;2.42;;
47784;SDS011;35233;55.686;37.848;2023-07-31T05:21:22;2.67;;;2.05;;
47784;SDS011;35233;55.686;37.848;2023-07-31T05:23:47;2.30;;;2.10;;
47784;SDS011;35233;55.686;37.848;2023-07-31T05:26:13;3.05;;;2.30;;
47784;SDS011;35233;55.686;37.848;2023-07-31T05:28:38;2.53;;;2.25;;
47784;SDS011;35233;55.686;37.848;2023-07-31T05:31:04;3.90;;;2.67;;
47784;SDS011;35233;55.686;37.848;2023-07-31T05:33:31;2.60;;;2.22;;
47784;SDS011;35233;55.686;37.848;2023-07-31T05:35:57;2.88;;;2.30;;
47784;SDS011;35233;55.686;37.848;2023-07-31T05:38:23;3.25;;;2.40;;
47784;SDS011;35233;55.686;37.848;2023-07-31T05:40:48;3.20;;;2.33;;
47784;SDS011;35233;55.686;37.848;2023-07-31T05:43:14;4.55;;;2.55;;
47784;SDS011;35233;55.686;37.848;2023-07-31T05:45:40;3.03;;;2.50;;
47784;SDS011;35233;55.686;37.848;2023-07-31T05:48:06;2.78;;;2.40;;
47784;SDS011;35233;55.686;37.848;2023-07-31T05:50:32;2.33;;;2.10;;
47784;SDS011;35233;55.686;37.848;2023-07-31T05:52:57;3.10;;;2.53;;
47784;SDS011;35233;55.686;37.848;2023-07-31T05:55:23;3.15;;;2.33;;
47784;SDS011;35233;55.686;37.848;2023-07-31T05:57:52;3.40;;;2.28;;
47784;SDS011;35233;55.686;37.848;2023-07-31T06:00:18;2.95;;;2.28;;
47784;SDS011;35233;55.686;37.848;2023-07-31T06:02:43;2.78;;;2.20;;
47784;SDS011;35233;55.686;37.848;2023-07-31T06:05:09;2.95;;;2.42;;
47784;SDS011;35233;55.686;37.848;2023-07-31T06:07:35;3.42;;;2.17;;
47784;SDS011;35233;55.686;37.848;2023-07-31T06:10:00;3.75;;;2.28;;
47784;SDS011;35233;55.686;37.848;2023-07-31T06:12:28;3.05;;;2.63;;
47784;SDS011;35233;55.686;37.848;2023-07-31T06:14:53;2.50;;;2.28;;
47784;SDS011;35233;55.686;37.848;2023-07-31T06:17:19;4.22;;;2.40;;
47784;SDS011;35233;55.686;37.848;2023-07-31T06:19:46;3.13;;;2.70;;
47784;SDS011;35233;55.686;37.848;2023-07-31T06:22:12;3.25;;;2.28;;
47784;SDS011;35233;55.686;37.848;2023-07-31T06:24:37;3.60;;;2.30;;
47784;SDS011;35233;55.686;37.848;2023-07-31T06:27:03;2.92;;;2.20;;
47784;SDS011;35233;55.686;37.848;2023-07-31T06:29:29;2.80;;;2.30;;
47784;SDS011;35233;55.686;37.848;2023-07-31T06:31:55;2.95;;;2.60;;
47784;SDS011;35233;55.686;37.848;2023-07-31T06:34:20;2.97;;;2.20;;
47784;SDS011;35233;55.686;37.848;2023-07-31T06:36:46;5.40;;;2.63;;
47784;SDS011;35233;55.686;37.848;2023-07-31T06:39:11;3.22;;;2.30;;
47784;SDS011;35233;55.686;37.848;2023-07-31T06:41:37;4.00;;;2.38;;
47784;SDS011;35233;55.686;37.848;2023-07-31T06:44:03;2.42;;;1.95;;
47784;SDS011;35233;55.686;37.848;2023-07-31T06:46:28;3.30;;;2.50;;
47784;SDS011;35233;55.686;37.848;2023-07-31T06:48:54;3.60;;;2.65;;
47784;SDS011;35233;55.686;37.848;2023-07-31T06:51:20;2.88;;;2.30;;
47784;SDS011;35233;55.686;37.848;2023-07-31T06:53:45;2.95;;;2.25;;
47784;SDS011;35233;55.686;37.848;2023-07-31T06:56:11;3.22;;;2.20;;
47784;SDS011;35233;55.686;37.848;2023-07-31T06:58:37;2.63;;;2.10;;
47784;SDS011;35233;55.686;37.848;2023-07-31T07:01:02;2.63;;;2.08;;
47784;SDS011;35233;55.686;37.848;2023-07-31T07:03:28;4.30;;;2.45;;
47784;SDS011;35233;55.686;37.848;2023-07-31T07:05:54;3.30;;;2.47;;
47784;SDS011;35233;55.686;37.848;2023-07-31T07:08:20;2.50;;;2.10;;
47784;SDS011;35233;55.686;37.848;2023-07-31T07:10:46;2.50;;;2.10;;
47784;SDS011;35233;55.686;37.848;2023-07-31T07:13:12;2.92;;;2.30;;
47784;SDS011;35233;55.686;37.848;2023-07-31T07:15:38;2.40;;;2.00;;
47784;SDS011;35233;55.686;37.848;2023-07-31T07:18:03;2.35;;;2.00;;
47784;SDS011;35233;55.686;37.848;2023-07-31T07:20:29;2.45;;;2.10;;
47784;SDS011;35233;55.686;37.848;2023-07-31T07:22:54;2.65;;;2.25;;
47784;SDS011;35233;55.686;37.848;2023-07-31T07:25:20;2.20;;;1.92;;
47784;SDS011;35233;55.686;37.848;2023-07-31T07:27:45;2.42;;;2.05;;
47784;SDS011;35233;55.686;37.848;2023-07-31T07:30:11;3.35;;;2.40;;
47784;SDS011;35233;55.686;37.848;2023-07-31T07:32:36;2.67;;;2.15;;
47784;SDS011;35233;55.686;37.848;2023-07-31T07:35:02;3.72;;;2.30;;
47784;SDS011;35233;55.686;37.848;2023-07-31T07:37:28;3.00;;;2.30;;
47784;SDS011;35233;55.686;37.848;2023-07-31T07:39:53;3.05;;;2.20;;
47784;SDS011;35233;55.686;37.848;2023-07-31T07:42:19;2.72;;;2.10;;
47784;SDS011;35233;55.686;37.848;2023-07-31T07:44:44;2.55;;;1.95;;
47784;SDS011;35233;55.686;37.848;2023-07-31T07:47:10;2.70;;;2.20;;
47784;SDS011;35233;55.686;37.848;2023-07-31T07:49:35;2.33;;;2.10;;
47784;SDS011;35233;55.686;37.848;2023-07-31T07:52:01;2.30;;;2.10;;
47784;SDS011;35233;55.686;37.848;2023-07-31T07:54:28;2.20;;;2.00;;
47784;SDS011;35233;55.686;37.848;2023-07-31T07:56:53;2.92;;;2.30;;
47784;SDS011;35233;55.686;37.848;2023-07-31T07:59:18;2.88;;;2.38;;
47784;SDS011;35233;55.686;37.848;2023-07-31T08:01:44;3.38;;;2.20;;
47784;SDS011;35233;55.686;37.848;2023-07-31T08:04:10;3.38;;;2.20;;
47784;SDS011;35233;55.686;37.848;2023-07-31T08:06:35;2.63;;;2.20;;
47784;SDS011;35233;55.686;37.848;2023-07-31T08:09:00;2.75;;;2.20;;
47784;SDS011;35233;55.686;37.848;2023-07-31T08:11:31;3.20;;;2.33;;
47784;SDS011;35233;55.686;37.848;2023-07-31T08:13:56;2.47;;;2.10;;
47784;SDS011;35233;55.686;37.848;2023-07-31T08:16:22;3.00;;;2.25;;
47784;SDS011;35233;55.686;37.848;2023-07-31T08:18:47;2.45;;;2.13;;
47784;SDS011;35233;55.686;37.848;2023-07-31T08:21:13;2.17;;;1.92;;
47784;SDS011;35233;55.686;37.848;2023-07-31T08:23:40;2.50;;;2.05;;
47784;SDS011;35233;55.686;37.848;2023-07-31T08:26:05;3.70;;;2.13;;
47784;SDS011;35233;55.686;37.848;2023-07-31T08:28:31;2.95;;;2.10;;
47784;SDS011;35233;55.686;37.848;2023-07-31T08:30:56;2.55;;;2.20;;
47784;SDS011;35233;55.686;37.848;2023-07-31T08:33:22;1.95;;;1.77;;
47784;SDS011;35233;55.686;37.848;2023-07-31T08:35:47;2.70;;;2.10;;
47784;SDS011;35233;55.686;37.848;2023-07-31T08:38:13;1.80;;;1.70;;
47784;SDS011;35233;55.686;37.848;2023-07-31T08:40:39;2.45;;;1.95;;
47784;SDS011;35233;55.686;37.848;2023-07-31T08:43:04;2.70;;;2.20;;
47784;SDS011;35233;55.686;37.848;2023-07-31T08:45:30;3.22;;;2.20;;
47784;SDS011;35233;55.686;37.848;2023-07-31T08:47:57;3.17;;;2.20;;
47784;SDS011;35233;55.686;37.848;2023-07-31T08:50:24;2.65;;;2.20;;
47784;SDS011;35233;55.686;37.848;2023-07-31T08:52:50;2.13;;;1.92;;
47784;SDS011;35233;55.686;37.848;2023-07-31T08:55:17;2.65;;;2.10;;
47784;SDS011;35233;55.686;37.848;2023-07-31T08:57:42;2.38;;;1.90;;
47784;SDS011;35233;55.686;37.848;2023-07-31T09:00:09;3.03;;;2.00;;
47784;SDS011;35233;55.686;37.848;2023-07-31T09:02:46;2.55;;;1.98;;
47784;SDS011;35233;55.686;37.848;2023-07-31T09:05:17;3.13;;;2.40;;
47784;SDS011;35233;55.686;37.848;2023-07-31T09:07:45;2.83;;;2.30;;
47784;SDS011;35233;55.686;37.848;2023-07-31T09:10:12;3.08;;;2.15;;
47784;SDS011;35233;55.686;37.848;2023-07-31T09:12:38;2.67;;;2.08;;
47784;SDS011;35233;55.686;37.848;2023-07-31T09:15:05;2.83;;;2.33;;
47784;SDS011;35233;55.686;37.848;2023-07-31T09:17:31;2.50;;;2.00;;
47784;SDS011;35233;55.686;37.848;2023-07-31T09:20:01;2.97;;;2.17;;
47784;SDS011;35233;55.686;37.848;2023-07-31T09:22:38;2.78;;;2.03;;
47784;SDS011;35233;55.686;37.848;2023-07-31T09:25:18;2.97;;;2.40;;
47784;SDS011;35233;55.686;37.848;2023-07-31T09:27:47;2.75;;;1.90;;
47784;SDS011;35233;55.686;37.848;2023-07-31T09:30:13;2.40;;;2.05;;
47784;SDS011;35233;55.686;37.848;2023-07-31T09:32:38;2.83;;;1.85;;
47784;SDS011;35233;55.686;37.848;2023-07-31T09:37:59;2.58;;;1.90;;
47784;SDS011;35233;55.686;37.848;2023-07-31T09:40:31;2.92;;;2.30;;
47784;SDS011;35233;55.686;37.848;2023-07-31T09:43:02;3.50;;;2.65;;
47784;SDS011;35233;55.686;37.848;2023-07-31T09:45:29;3.00;;;2.10;;
47784;SDS011;35233;55.686;37.848;2023-07-31T09:47:59;2.28;;;2.00;;
47784;SDS011;35233;55.686;37.848;2023-07-31T09:50:25;2.45;;;1.98;;
47784;SDS011;35233;55.686;37.848;2023-07-31T09:52:51;2.75;;;2.00;;
47784;SDS011;35233;55.686;37.848;2023-07-31T09:55:17;2.22;;;2.03;;
47784;SDS011;35233;55.686;37.848;2023-07-31T09:57:47;2.35;;;1.98;;
47784;SDS011;35233;55.686;37.848;2023-07-31T10:00:15;2.58;;;1.98;;
47784;SDS011;35233;55.686;37.848;2023-07-31T10:02:42;2.83;;;2.15;;
47784;SDS011;35233;55.686;37.848;2023-07-31T10:05:11;2.17;;;1.80;;
47784;SDS011;35233;55.686;37.848;2023-07-31T10:07:38;1.95;;;1.75;;
47784;SDS011;35233;55.686;37.848;2023-07-31T10:10:09;2.30;;;1.90;;
47784;SDS011;35233;55.686;37.848;2023-07-31T10:12:36;2.38;;;2.05;;
47784;SDS011;35233;55.686;37.848;2023-07-31T10:15:02;2.33;;;2.00;;
47784;SDS011;35233;55.686;37.848;2023-07-31T10:17:29;2.75;;;2.03;;
47784;SDS011;35233;55.686;37.848;2023-07-31T10:19:58;2.17;;;1.90;;
47784;SDS011;35233;55.686;37.848;2023-07-31T10:22:26;1.98;;;1.70;;
47784;SDS011;35233;55.686;37.848;2023-07-31T10:24:52;1.95;;;1.75;;
47784;SDS011;35233;55.686;37.848;2023-07-31T10:27:20;2.20;;;1.80;;
47784;SDS011;35233;55.686;37.848;2023-07-31T10:29:45;2.00;;;1.80;;
47784;SDS011;35233;55.686;37.848;2023-07-31T10:32:13;2.17;;;1.95;;
47784;SDS011;35233;55.686;37.848;2023-07-31T10:34:40;2.55;;;2.08;;
47784;SDS011;35233;55.686;37.848;2023-07-31T10:37:19;2.65;;;2.08;;
47784;SDS011;35233;55.686;37.848;2023-07-31T10:40:02;2.10;;;1.90;;
47784;SDS011;35233;55.686;37.848;2023-07-31T10:42:30;2.40;;;1.92;;
47784;SDS011;35233;55.686;37.848;2023-07-31T10:45:09;2.33;;;2.00;;
47784;SDS011;35233;55.686;37.848;2023-07-31T10:47:44;2.65;;;2.10;;
47784;SDS011;35233;55.686;37.848;2023-07-31T10:50:16;2.42;;;2.05;;
47784;SDS011;35233;55.686;37.848;2023-07-31T10:52:44;1.92;;;1.65;;
47784;SDS011;35233;55.686;37.848;2023-07-31T10:57:45;2.22;;;2.03;;
47784;SDS011;35233;55.686;37.848;2023-07-31T11:00:25;2.63;;;2.00;;
47784;SDS011;35233;55.686;37.848;2023-07-31T11:03:00;2.15;;;1.90;;
47784;SDS011;35233;55.686;37.848;2023-07-31T11:08:24;2.80;;;2.20;;
47784;SDS011;35233;55.686;37.848;2023-07-31T11:13:42;2.80;;;2.00;;
47784;SDS011;35233;55.686;37.848;2023-07-31T11:16:10;2.55;;;1.98;;
47784;SDS011;35233;55.686;37.848;2023-07-31T11:18:38;2.10;;;1.83;;
47784;SDS011;35233;55.686;37.848;2023-07-31T11:21:07;3.85;;;2.15;;
47784;SDS011;35233;55.686;37.848;2023-07-31T11:23:33;3.03;;;2.10;;
47784;SDS011;35233;55.686;37.848;2023-07-31T11:25:59;2.38;;;2.08;;
47784;SDS011;35233;55.686;37.848;2023-07-31T11:28:25;2.85;;;2.08;;
47784;SDS011;35233;55.686;37.848;2023-07-31T11:30:51;3.60;;;2.08;;
47784;SDS011;35233;55.686;37.848;2023-07-31T11:33:16;2.47;;;1.95;;
47784;SDS011;35233;55.686;37.848;2023-07-31T11:35:46;2.42;;;1.90;;
47784;SDS011;35233;55.686;37.848;2023-07-31T11:38:26;2.53;;;2.28;;
47784;SDS011;35233;55.686;37.848;2023-07-31T11:40:55;2.33;;;2.00;;
47784;SDS011;35233;55.686;37.848;2023-07-31T11:43:27;2.10;;;1.90;;
47784;SDS011;35233;55.686;37.848;2023-07-31T11:45:57;1.90;;;1.75;;
47784;SDS011;35233;55.686;37.848;2023-07-31T11:50:53;2.72;;;2.00;;
47784;SDS011;35233;55.686;37.848;2023-07-31T11:53:43;2.25;;;1.98;;
47784;SDS011;35233;55.686;37.848;2023-07-31T11:56:13;2.75;;;2.00;;
47784;SDS011;35233;55.686;37.848;2023-07-31T11:58:41;2.80;;;2.05;;
47784;SDS011;35233;55.686;37.848;2023-07-31T12:01:10;2.30;;;1.90;;
47784;SDS011;35233;55.686;37.848;2023-07-31T12:03:36;2.28;;;1.95;;
47784;SDS011;35233;55.686;37.848;2023-07-31T12:06:03;2.90;;;1.85;;
47784;SDS011;35233;55.686;37.848;2023-07-31T12:08:28;2.33;;;2.05;;
47784;SDS011;35233;55.686;37.848;2023-07-31T12:10:54;1.90;;;1.70;;
47784;SDS011;35233;55.686;37.848;2023-07-31T12:13:26;2.13;;;1.85;;
47784;SDS011;35233;55.686;37.848;2023-07-31T12:15:56;2.15;;;1.70;;
47784;SDS011;35233;55.686;37.848;2023-07-31T12:18:23;2.58;;;2.10;;
47784;SDS011;35233;55.686;37.848;2023-07-31T12:21:00;2.63;;;2.10;;
47784;SDS011;35233;55.686;37.848;2023-07-31T12:23:27;2.22;;;2.03;;
47784;SDS011;35233;55.686;37.848;2023-07-31T12:26:06;2.33;;;1.88;;
47784;SDS011;35233;55.686;37.848;2023-07-31T12:28:36;2.08;;;1.73;;
47784;SDS011;35233;55.686;37.848;2023-07-31T12:31:05;2.08;;;1.85;;
47784;SDS011;35233;55.686;37.848;2023-07-31T12:33:32;2.17;;;1.77;;
47784;SDS011;35233;55.686;37.848;2023-07-31T12:36:02;2.05;;;1.80;;
47784;SDS011;35233;55.686;37.848;2023-07-31T12:38:29;2.38;;;1.92;;
47784;SDS011;35233;55.686;37.848;2023-07-31T12:40:55;2.33;;;1.88;;
47784;SDS011;35233;55.686;37.848;2023-07-31T12:43:21;2.60;;;2.03;;
47784;SDS011;35233;55.686;37.848;2023-07-31T12:45:46;2.45;;;2.00;;
47784;SDS011;35233;55.686;37.848;2023-07-31T12:48:12;2.47;;;2.08;;
47784;SDS011;35233;55.686;37.848;2023-07-31T12:50:38;2.72;;;1.88;;
47784;SDS011;35233;55.686;37.848;2023-07-31T12:53:04;1.98;;;1.77;;
47784;SDS011;35233;55.686;37.848;2023-07-31T12:55:30;1.80;;;1.67;;
47784;SDS011;35233;55.686;37.848;2023-07-31T12:57:56;2.15;;;1.92;;
47784;SDS011;35233;55.686;37.848;2023-07-31T13:00:22;2.58;;;2.10;;
47784;SDS011;35233;55.686;37.848;2023-07-31T13:02:47;2.10;;;1.88;;
47784;SDS011;35233;55.686;37.848;2023-07-31T13:05:13;2.28;;;1.98;;
47784;SDS011;35233;55.686;37.848;2023-07-31T13:07:39;1.77;;;1.67;;
47784;SDS011;35233;55.686;37.848;2023-07-31T13:10:05;1.92;;;1.73;;
47784;SDS011;35233;55.686;37.848;2023-07-31T13:12:32;1.90;;;1.67;;
47784;SDS011;35233;55.686;37.848;2023-07-31T13:14:57;2.10;;;1.80;;
47784;SDS011;35233;55.686;37.848;2023-07-31T13:17:23;1.95;;;1.75;;
47784;SDS011;35233;55.686;37.848;2023-07-31T13:19:48;2.38;;;1.90;;
47784;SDS011;35233;55.686;37.848;2023-07-31T13:22:14;2.03;;;1.80;;
47784;SDS011;35233;55.686;37.848;2023-07-31T13:24:39;2.40;;;1.90;;
47784;SDS011;35233;55.686;37.848;2023-07-31T13:27:05;2.08;;;1.75;;
47784;SDS011;35233;55.686;37.848;2023-07-31T13:29:30;2.05;;;1.77;;
47784;SDS011;35233;55.686;37.848;2023-07-31T13:31:57;2.78;;;2.00;;
47784;SDS011;35233;55.686;37.848;2023-07-31T13:34:23;2.20;;;1.70;;
47784;SDS011;35233;55.686;37.848;2023-07-31T13:36:48;2.17;;;1.85;;
47784;SDS011;35233;55.686;37.848;2023-07-31T13:39:14;3.58;;;2.42;;
47784;SDS011;35233;55.686;37.848;2023-07-31T13:41:39;4.40;;;2.00;;
47784;SDS011;35233;55.686;37.848;2023-07-31T13:44:05;2.03;;;1.65;;
47784;SDS011;35233;55.686;37.848;2023-07-31T13:46:30;2.25;;;1.90;;
47784;SDS011;35233;55.686;37.848;2023-07-31T13:48:57;2.45;;;2.00;;
47784;SDS011;35233;55.686;37.848;2023-07-31T13:51:24;2.15;;;1.80;;
47784;SDS011;35233;55.686;37.848;2023-07-31T13:53:50;2.63;;;2.03;;
47784;SDS011;35233;55.686;37.848;2023-07-31T13:56:16;1.52;;;1.40;;
47784;SDS011;35233;55.686;37.848;2023-07-31T13:58:41;1.75;;;1.65;;
47784;SDS011;35233;55.686;37.848;2023-07-31T14:01:07;2.47;;;1.90;;
47784;SDS011;35233;55.686;37.848;2023-07-31T14:03:32;2.10;;;1.77;;
47784;SDS011;35233;55.686;37.848;2023-07-31T14:05:58;3.10;;;2.13;;
47784;SDS011;35233;55.686;37.848;2023-07-31T14:08:23;1.73;;;1.60;;
47784;SDS011;35233;55.686;37.848;2023-07-31T14:10:49;2.25;;;2.00;;
47784;SDS011;35233;55.686;37.848;2023-07-31T14:13:14;2.08;;;1.88;;
47784;SDS011;35233;55.686;37.848;2023-07-31T14:15:43;2.10;;;1.90;;
47784;SDS011;35233;55.686;37.848;2023-07-31T14:18:09;2.20;;;1.90;;
47784;SDS011;35233;55.686;37.848;2023-07-31T14:20:34;2.70;;;2.22;;
47784;SDS011;35233;55.686;37.848;2023-07-31T14:23:00;2.17;;;1.98;;
47784;SDS011;35233;55.686;37.848;2023-07-31T14:25:26;2.05;;;1.70;;
47784;SDS011;35233;55.686;37.848;2023-07-31T14:27:52;3.20;;;1.98;;
47784;SDS011;35233;55.686;37.848;2023-07-31T14:30:17;2.50;;;1.83;;
47784;SDS011;35233;55.686;37.848;2023-07-31T14:32:43;1.80;;;1.58;;
47784;SDS011;35233;55.686;37.848;2023-07-31T14:35:09;1.77;;;1.67;;
47784;SDS011;35233;55.686;37.848;2023-07-31T14:37:38;1.83;;;1.73;;
47784;SDS011;35233;55.686;37.848;2023-07-31T14:40:08;2.58;;;2.05;;
47784;SDS011;35233;55.686;37.848;2023-07-31T14:42:36;2.38;;;1.90;;
47784;SDS011;35233;55.686;37.848;2023-07-31T14:45:03;2.35;;;1.90;;
47784;SDS011;35233;55.686;37.848;2023-07-31T14:47:29;3.40;;;1.98;;